Aleksandr Zhitnik — EMBN — position and weather

sailwx.info

Track history (hours):
 
Tides and Currents Weather Stations Pressure Air Temp Water Temp Dewpoint Dewpoint Depression Visibility Wind Speed Wind Dir Waves Ship Positions

Aleksandr Zhitnik

Last reported at 2014-Dec-04 13:15 UTC. Time now 2014-Dec-22 04:15 UTC.
Position N 46°36' E 031°42'.
Warning: this ship's position is 17 days out of date.

Length 85 m; draft 1.8 m.

Type: Cargo ship. MMSI: 272089600.

Date/timePositionNaut miles runAvg speedWind from/ knotsBaromVisibWave heightAir tempDewpointWater temp
2014-Dec-04 13:15N 46°36' E 031°42'1 0.5
2014-Dec-04 10:31N 46°36' E 031°44'0 0.0
2014-Dec-04 09:07N 46°36' E 031°44'0 0.0
2014-Dec-04 08:25N 46°36' E 031°44'0 0.0
2014-Dec-04 06:16N 46°36' E 031°44'0 0.0
2014-Dec-04 05:28N 46°36' E 031°44'0 0.0
2014-Dec-04 04:10N 46°36' E 031°44'0 0.0
2014-Dec-04 03:19N 46°36' E 031°44'0 0.0
2014-Dec-04 02:07N 46°36' E 031°44'0 0.0
2014-Dec-04 01:28N 46°36' E 031°44'0 0.0
2014-Dec-04 00:10N 46°36' E 031°44'0 0.0
2014-Dec-03 22:28N 46°36' E 031°44'0 0.0
2014-Dec-03 21:28N 46°36' E 031°44'0 0.0
2014-Dec-03 20:31N 46°36' E 031°44'0 0.0
2014-Dec-03 17:23N 46°36' E 031°44'0 0.0
2014-Dec-03 16:25N 46°36' E 031°44'0 0.0
2014-Dec-03 15:27N 46°36' E 031°44'2 1.9
2014-Dec-03 14:32N 46°36' E 031°46'6 5.8
2014-Dec-03 13:34N 46°34' E 031°54'6 6.1
2014-Dec-03 12:33N 46°32' E 032°03'  
2014-Dec-01 02:22N 46°32' E 032°05'2 0.2
2014-Nov-30 18:18N 46°30' E 032°05'0 0.3
2014-Nov-30 17:11N 46°30' E 032°04'0 0.0
2014-Nov-29 03:11N 46°30' E 032°04'0 0.0
2014-Nov-29 02:33N 46°30' E 032°04'0 0.0
2014-Nov-29 01:33N 46°30' E 032°04'0 0.0
2014-Nov-29 00:32N 46°30' E 032°04'0 0.0
2014-Nov-28 23:29N 46°30' E 032°04'0 0.0
2014-Nov-28 22:33N 46°30' E 032°04'0 0.0
2014-Nov-28 21:33N 46°30' E 032°04'0 0.0
2014-Nov-28 20:33N 46°30' E 032°04'0 0.0
2014-Nov-28 19:31N 46°30' E 032°04'0 0.0
2014-Nov-28 18:26N 46°30' E 032°04'0 0.0
2014-Nov-28 17:24N 46°30' E 032°04'0 0.0
2014-Nov-28 16:09N 46°30' E 032°04'  
Track history (hours):
 
Tides and Currents Weather Stations Pressure Air Temp Water Temp Dewpoint Dewpoint Depression Visibility Wind Speed Wind Dir Waves Ship Positions

Aleksandr Zhitnik

Last reported at 2014-Dec-04 13:15 UTC. Time now 2014-Dec-22 04:15 UTC.
Position N 46°36' E 031°42'.
Warning: this ship's position is 17 days out of date.

Length 85 m; draft 1.8 m.

Type: Cargo ship. MMSI: 272089600.

Date/timePositionNaut miles runAvg speedWind from/ knotsBaromVisibWave heightAir tempDewpointWater temp
2014-Dec-04 13:15N 46°36' E 031°42'1 0.5
2014-Dec-04 10:31N 46°36' E 031°44'0 0.0
2014-Dec-04 09:07N 46°36' E 031°44'0 0.0
2014-Dec-04 08:25N 46°36' E 031°44'0 0.0
2014-Dec-04 06:16N 46°36' E 031°44'0 0.0
2014-Dec-04 05:28N 46°36' E 031°44'0 0.0
2014-Dec-04 04:10N 46°36' E 031°44'0 0.0
2014-Dec-04 03:19N 46°36' E 031°44'0 0.0
2014-Dec-04 02:07N 46°36' E 031°44'0 0.0
2014-Dec-04 01:28N 46°36' E 031°44'0 0.0
2014-Dec-04 00:10N 46°36' E 031°44'0 0.0
2014-Dec-03 22:28N 46°36' E 031°44'0 0.0
2014-Dec-03 21:28N 46°36' E 031°44'0 0.0
2014-Dec-03 20:31N 46°36' E 031°44'0 0.0
2014-Dec-03 17:23N 46°36' E 031°44'0 0.0
2014-Dec-03 16:25N 46°36' E 031°44'0 0.0
2014-Dec-03 15:27N 46°36' E 031°44'2 1.9
2014-Dec-03 14:32N 46°36' E 031°46'6 5.8
2014-Dec-03 13:34N 46°34' E 031°54'6 6.1
2014-Dec-03 12:33N 46°32' E 032°03'  
2014-Dec-01 02:22N 46°32' E 032°05'2 0.2
2014-Nov-30 18:18N 46°30' E 032°05'0 0.3
2014-Nov-30 17:11N 46°30' E 032°04'0 0.0
2014-Nov-29 03:11N 46°30' E 032°04'0 0.0
2014-Nov-29 02:33N 46°30' E 032°04'0 0.0
2014-Nov-29 01:33N 46°30' E 032°04'0 0.0
2014-Nov-29 00:32N 46°30' E 032°04'0 0.0
2014-Nov-28 23:29N 46°30' E 032°04'0 0.0
2014-Nov-28 22:33N 46°30' E 032°04'0 0.0
2014-Nov-28 21:33N 46°30' E 032°04'0 0.0
2014-Nov-28 20:33N 46°30' E 032°04'0 0.0
2014-Nov-28 19:31N 46°30' E 032°04'0 0.0
2014-Nov-28 18:26N 46°30' E 032°04'0 0.0
2014-Nov-28 17:24N 46°30' E 032°04'0 0.0
2014-Nov-28 16:09N 46°30' E 032°04'  

Dump ship's entire track history